Vive — LLOF — position and weather

sailwx.info

Track history (hours):
 
Tides and Currents Weather Stations Pressure Air Temp Water Temp Dewpoint Dewpoint Depression Visibility Wind Speed Wind Dir Waves Ship Positions

Vive

Last reported at 2017-Sep-13 22:03 UTC. Time now 2017-Nov-24 18:26 UTC.
Position N 33°49' W 119°10'.
Warning: this ship's position is months out of date.

Length 16 m.

Type: Sailing vessel. MMSI: 257671570.

Date/timePositionNaut miles runAvg speedWind from/ knotsBaromVisibWave heightAir tempDewpointWater temp
2017-Sep-13 22:03N 33°49' W 119°10'80 1.7
2017-Sep-11 21:59N 33°03' W 117°52'3 6.4
2017-Sep-11 21:30N 33°01' W 117°49'3 6.7
2017-Sep-11 21:00N 32°59' W 117°46'4 7.1
2017-Sep-11 20:30N 32°57' W 117°43'4 7.2
2017-Sep-11 20:00N 32°55' W 117°40'4 7.4
2017-Sep-11 19:30N 32°53' W 117°36'4 7.4
2017-Sep-11 19:00N 32°50' W 117°33'6 7.8
2017-Sep-11 18:16N 32°47' W 117°27'2 7.7
2017-Sep-11 18:00N 32°45' W 117°25'4 7.7
2017-Sep-11 17:30N 32°43' W 117°22'4 7.5
2017-Sep-11 17:00N 32°41' W 117°18'4 7.1
2017-Sep-11 16:27N 32°39' W 117°14'4 0.5
2017-Sep-11 08:16N 32°43' W 117°14'0 0.0
2017-Sep-11 06:33N 32°43' W 117°14'0 0.0
2017-Sep-11 00:47N 32°43' W 117°14'1 3.4
2017-Sep-11 00:30N 32°42' W 117°14'3 5.4
2017-Sep-10 23:57N 32°39' W 117°14'3 6.6
2017-Sep-10 23:30N 32°36' W 117°14'  
Track history (hours):
 
Tides and Currents Weather Stations Pressure Air Temp Water Temp Dewpoint Dewpoint Depression Visibility Wind Speed Wind Dir Waves Ship Positions

Vive

Last reported at 2017-Sep-13 22:03 UTC. Time now 2017-Nov-24 18:26 UTC.
Position N 33°49' W 119°10'.
Warning: this ship's position is months out of date.

Length 16 m.

Type: Sailing vessel. MMSI: 257671570.

Date/timePositionNaut miles runAvg speedWind from/ knotsBaromVisibWave heightAir tempDewpointWater temp
2017-Sep-13 22:03N 33°49' W 119°10'80 1.7
2017-Sep-11 21:59N 33°03' W 117°52'3 6.4
2017-Sep-11 21:30N 33°01' W 117°49'3 6.7
2017-Sep-11 21:00N 32°59' W 117°46'4 7.1
2017-Sep-11 20:30N 32°57' W 117°43'4 7.2
2017-Sep-11 20:00N 32°55' W 117°40'4 7.4
2017-Sep-11 19:30N 32°53' W 117°36'4 7.4
2017-Sep-11 19:00N 32°50' W 117°33'6 7.8
2017-Sep-11 18:16N 32°47' W 117°27'2 7.7
2017-Sep-11 18:00N 32°45' W 117°25'4 7.7
2017-Sep-11 17:30N 32°43' W 117°22'4 7.5
2017-Sep-11 17:00N 32°41' W 117°18'4 7.1
2017-Sep-11 16:27N 32°39' W 117°14'4 0.5
2017-Sep-11 08:16N 32°43' W 117°14'0 0.0
2017-Sep-11 06:33N 32°43' W 117°14'0 0.0
2017-Sep-11 00:47N 32°43' W 117°14'1 3.4
2017-Sep-11 00:30N 32°42' W 117°14'3 5.4
2017-Sep-10 23:57N 32°39' W 117°14'3 6.6
2017-Sep-10 23:30N 32°36' W 117°14'  

Dump ship's entire track history